Time;durP1;ratioP1;P1;durP2;ratioP2;P2;SDS_P1;SDS_P2;PMS_P1;PMS_P2;Temp;Humidity;BMP_temperature;BMP_pressure;BME280_temperature;BME280_humidity;BME280_pressure;Samples;Min_cycle;Max_cycle;Signal;HPM_P1;HPM_P2
2022/10/22 00:01:47;;;;;;;7.97;4.85;;;;;;;6.66;89.69;95498.63;5097903;28;20233;-75
2022/10/22 00:04:14;;;;;;;10.23;5.10;;;;;;;6.64;89.74;95498.91;5104181;28;20279;-77
2022/10/22 00:06:41;;;;;;;10.63;5.50;;;;;;;6.61;90.06;95493.28;5102933;28;20267;-76
2022/10/22 00:09:08;;;;;;;9.48;5.28;;;;;;;6.58;89.56;95494.66;5090437;28;20745;-77
2022/10/22 00:11:35;;;;;;;6.50;4.47;;;;;;;6.58;89.47;95499.22;5102613;28;20950;-76
2022/10/22 00:14:01;;;;;;;12.10;5.13;;;;;;;6.54;89.30;95506.28;5090367;28;20672;-76
2022/10/22 00:16:29;;;;;;;10.07;5.75;;;;;;;6.49;88.96;95498.22;5090778;28;20202;-76
2022/10/22 00:18:56;;;;;;;13.25;5.25;;;;;;;6.34;89.58;95499.13;5102244;28;20670;-76
2022/10/22 00:21:24;;;;;;;12.77;5.75;;;;;;;6.30;89.66;95503.44;5104467;28;20250;-76
2022/10/22 00:23:51;;;;;;;8.07;4.35;;;;;;;6.33;89.90;95508.28;5102651;28;20290;-76
2022/10/22 00:26:18;;;;;;;13.02;6.97;;;;;;;6.35;89.41;95504.22;5091266;28;20734;-76
2022/10/22 00:28:44;;;;;;;11.80;6.30;;;;;;;6.32;89.55;95502.09;5102083;28;20271;-76
2022/10/22 00:31:11;;;;;;;10.25;4.43;;;;;;;6.35;89.12;95501.53;5103807;28;20258;-76
2022/10/22 00:33:39;;;;;;;23.23;8.18;;;;;;;6.45;87.56;95489.09;5098299;28;20229;-76
2022/10/22 00:36:07;;;;;;;17.60;5.60;;;;;;;6.24;88.41;95483.06;5094243;28;20199;-76
2022/10/22 00:38:34;;;;;;;9.75;4.30;;;;;;;6.18;90.04;95479.59;5098629;28;20189;-75
2022/10/22 00:41:01;;;;;;;7.50;4.13;;;;;;;6.29;90.09;95483.81;5096490;28;20198;-76
2022/10/22 00:43:27;;;;;;;9.27;5.28;;;;;;;6.27;90.09;95480.63;5101254;28;20222;-76
2022/10/22 00:45:54;;;;;;;9.13;5.10;;;;;;;6.26;90.12;95481.69;5102947;28;20282;-76
2022/10/22 00:48:25;;;;;;;10.38;4.93;;;;;;;6.32;90.01;95488.63;5097687;28;20636;-76
2022/10/22 00:50:56;;;;;;;7.82;4.45;;;;;;;6.23;89.61;95489.53;5095885;28;20186;-76
2022/10/22 00:53:34;;;;;;;7.78;4.30;;;;;;;6.21;90.18;95497.88;5099336;28;20210;-76
2022/10/22 00:56:01;;;;;;;9.40;5.25;;;;;;;6.34;89.67;95493.75;5103466;28;20202;-76
2022/10/22 00:58:33;;;;;;;8.07;4.35;;;;;;;6.23;88.79;95484.13;5102030;28;20193;-76
2022/10/22 01:01:00;;;;;;;9.52;4.25;;;;;;;6.21;89.34;95487.09;5090688;28;20283;-76
2022/10/22 01:03:26;;;;;;;8.30;4.43;;;;;;;6.19;89.83;95481.19;5102515;28;20590;-76
2022/10/22 01:05:58;;;;;;;8.27;5.28;;;;;;;6.14;89.25;95467.78;5096322;28;20687;-76
2022/10/22 01:08:28;;;;;;;10.63;3.63;;;;;;;6.09;89.19;95462.44;5096074;28;20198;-76
2022/10/22 01:11:06;;;;;;;5.50;3.97;;;;;;;6.12;89.42;95453.81;5102590;28;20210;-75
2022/10/22 01:13:44;;;;;;;8.00;5.07;;;;;;;6.18;89.04;95459.94;5089110;28;20218;-74
2022/10/22 01:16:16;;;;;;;10.18;4.55;;;;;;;6.14;89.46;95445.47;5101993;28;20254;-76
2022/10/22 01:18:54;;;;;;;8.32;4.78;;;;;;;6.18;89.57;95446.50;5096266;28;20252;-76
2022/10/22 01:21:31;;;;;;;7.95;4.28;;;;;;;6.16;89.45;95449.47;5096550;28;20205;-75
2022/10/22 01:24:24;;;;;;;7.90;4.28;;;;;;;6.21;89.47;95449.44;5120278;27;20197;-75
2022/10/22 01:27:01;;;;;;;12.98;5.65;;;;;;;6.15;89.76;95442.47;5096307;28;20270;-76
2022/10/22 01:29:37;;;;;;;16.90;10.23;;;;;;;6.14;89.50;95435.50;5096292;28;20244;-76
2022/10/22 01:32:10;;;;;;;20.00;10.40;;;;;;;6.12;89.68;95437.69;5100403;28;20202;-76
2022/10/22 01:34:41;;;;;;;19.30;11.43;;;;;;;6.16;89.32;95441.41;5093272;28;20202;-76
2022/10/22 01:37:09;;;;;;;19.33;11.40;;;;;;;6.14;89.04;95430.13;5098312;28;20195;-76
2022/10/22 01:39:42;;;;;;;8.35;4.50;;;;;;;6.12;89.19;95421.53;5102838;28;20256;-76
2022/10/22 01:42:09;;;;;;;9.40;4.63;;;;;;;6.11;90.18;95430.69;5101194;28;20217;-76
2022/10/22 01:44:37;;;;;;;8.50;4.28;;;;;;;6.08;89.84;95420.47;5095900;28;20282;-76
2022/10/22 01:47:15;;;;;;;9.90;4.68;;;;;;;6.07;89.56;95416.97;5096853;28;20190;-76
2022/10/22 01:50:04;;;;;;;6.15;3.85;;;;;;;6.16;89.33;95421.75;5095600;28;20183;-76
2022/10/22 01:52:44;;;;;;;8.65;4.75;;;;;;;6.07;89.19;95424.25;5096129;28;20258;-75
2022/10/22 01:55:20;;;;;;;11.60;5.35;;;;;;;6.14;89.57;95422.06;5100410;28;20238;-76
2022/10/22 01:57:59;;;;;;;9.27;4.72;;;;;;;6.05;89.18;95426.41;5100388;28;20193;-76
2022/10/22 02:00:28;;;;;;;9.25;5.53;;;;;;;6.02;89.77;95432.34;5099507;28;20198;-75
2022/10/22 02:03:00;;;;;;;10.40;4.88;;;;;;;6.01;89.77;95430.75;5104014;28;20276;-75
2022/10/22 02:05:32;;;;;;;8.02;4.88;;;;;;;6.03;90.19;95429.38;5106243;28;20267;-75
2022/10/22 02:08:06;;;;;;;13.05;4.57;;;;;;;6.06;89.39;95428.81;5092623;28;20203;-76
2022/10/22 02:10:33;;;;;;;8.55;4.68;;;;;;;5.96;89.85;95428.09;5105929;28;20725;-75
2022/10/22 02:13:02;;;;;;;7.53;4.03;;;;;;;5.95;89.65;95434.56;5092233;28;20233;-75
2022/10/22 02:15:33;;;;;;;8.30;4.93;;;;;;;5.78;90.76;95436.75;5097970;28;20562;-75
2022/10/22 02:18:00;;;;;;;9.95;4.20;;;;;;;5.81;90.81;95436.22;5099214;28;20618;-75
2022/10/22 02:20:29;;;;;;;8.60;5.70;;;;;;;5.90;90.92;95423.81;5105437;28;20206;-75
2022/10/22 02:22:57;;;;;;;7.55;3.85;;;;;;;5.89;91.15;95417.63;5120069;27;20205;-76
2022/10/22 02:25:27;;;;;;;8.63;5.20;;;;;;;5.92;89.99;95421.66;5104490;28;20194;-75
2022/10/22 02:28:02;;;;;;;8.15;4.03;;;;;;;6.07;90.00;95413.50;5106043;28;20226;-77
2022/10/22 02:30:33;;;;;;;17.92;11.82;;;;;;;5.91;90.34;95414.66;5101678;28;20193;-76
2022/10/22 02:33:07;;;;;;;20.42;11.57;;;;;;;5.89;90.97;95422.22;5099040;28;20217;-75
2022/10/22 02:35:35;;;;;;;18.98;10.65;;;;;;;5.94;91.90;95427.56;5100732;28;20247;-75
2022/10/22 02:38:03;;;;;;;17.05;10.95;;;;;;;6.01;91.32;95430.75;5105685;28;20668;-77
2022/10/22 02:40:31;;;;;;;19.70;11.35;;;;;;;6.00;90.85;95435.34;5103715;28;20719;-77
2022/10/22 02:42:58;;;;;;;20.60;10.75;;;;;;;5.95;90.86;95437.25;5098830;28;20228;-76
2022/10/22 02:45:25;;;;;;;9.00;4.82;;;;;;;5.85;90.49;95432.72;5099622;28;20287;-76
2022/10/22 02:47:54;;;;;;;8.40;4.82;;;;;;;5.96;89.89;95444.22;5105638;28;20198;-76
2022/10/22 02:50:20;;;;;;;22.00;12.38;;;;;;;5.85;89.73;95448.84;5103937;28;20640;-76
2022/10/22 02:52:47;;;;;;;18.33;11.52;;;;;;;5.85;89.48;95443.47;5098415;28;20610;-76
2022/10/22 02:55:14;;;;;;;20.30;12.57;;;;;;;5.90;88.81;95440.75;5098674;28;20637;-75
2022/10/22 02:57:41;;;;;;;21.20;12.40;;;;;;;5.81;88.77;95441.59;5105361;28;20213;-75
2022/10/22 03:00:10;;;;;;;17.65;10.85;;;;;;;5.68;88.72;95427.69;5104110;28;20247;-75
2022/10/22 03:02:36;;;;;;;20.95;12.45;;;;;;;5.68;89.41;95443.81;5098245;28;20205;-75
2022/10/22 03:05:06;;;;;;;16.75;11.23;;;;;;;5.65;90.10;95438.97;5111595;28;20659;-75
2022/10/22 03:07:33;;;;;;;6.97;3.63;;;;;;;5.80;91.07;95439.97;5098053;28;20209;-75
2022/10/22 03:10:00;;;;;;;13.57;5.15;;;;;;;5.80;91.40;95440.78;5111992;28;20194;-75
2022/10/22 03:12:26;;;;;;;12.55;5.63;;;;;;;5.77;91.22;95440.53;5091450;28;20585;-75
2022/10/22 03:14:53;;;;;;;8.43;5.07;;;;;;;5.84;91.51;95441.84;5092288;28;20560;-75
2022/10/22 03:17:20;;;;;;;7.72;4.30;;;;;;;5.81;91.54;95436.22;5103487;28;20680;-75
2022/10/22 03:19:47;;;;;;;6.75;4.43;;;;;;;5.89;91.36;95438.34;5104694;28;20247;-75
2022/10/22 03:22:19;;;;;;;9.25;4.13;;;;;;;5.89;91.44;95438.34;5107760;27;20624;-75
2022/10/22 03:24:49;;;;;;;6.97;3.95;;;;;;;5.85;91.31;95431.91;5113437;27;20242;-76
2022/10/22 03:27:18;;;;;;;6.38;3.78;;;;;;;5.85;91.37;95426.53;5100927;28;20221;-76
2022/10/22 03:29:46;;;;;;;5.45;3.95;;;;;;;5.94;90.70;95414.94;5097259;28;20197;-75
2022/10/22 03:32:13;;;;;;;8.60;5.30;;;;;;;5.82;90.58;95427.06;5100556;28;20198;-76
2022/10/22 03:34:39;;;;;;;9.52;4.25;;;;;;;5.86;90.22;95428.94;5104269;28;20648;-76
2022/10/22 03:37:06;;;;;;;8.50;4.75;;;;;;;5.86;90.40;95431.63;5102300;28;20239;-75
2022/10/22 03:39:36;;;;;;;8.50;4.38;;;;;;;5.82;90.67;95427.88;5097486;28;20205;-75
2022/10/22 03:42:05;;;;;;;6.95;4.78;;;;;;;5.83;90.70;95415.25;5099751;28;21124;-76
2022/10/22 03:44:32;;;;;;;17.33;5.30;;;;;;;5.83;90.35;95421.41;5104210;28;20789;-75
2022/10/22 03:46:59;;;;;;;8.10;4.40;;;;;;;5.86;90.50;95417.38;5102559;28;20239;-76
2022/10/22 03:49:26;;;;;;;10.07;4.85;;;;;;;5.87;91.12;95408.22;5097550;28;20197;-76
2022/10/22 03:51:52;;;;;;;9.63;4.90;;;;;;;5.89;91.66;95409.56;5098924;28;20210;-76
2022/10/22 03:54:19;;;;;;;6.13;4.20;;;;;;;5.91;91.20;95414.66;5104567;28;20557;-75
2022/10/22 03:56:47;;;;;;;10.07;5.10;;;;;;;5.80;90.02;95430.03;5102588;28;20259;-76
2022/10/22 03:59:14;;;;;;;7.90;4.40;;;;;;;5.87;90.45;95430.53;5097346;28;20346;-75
2022/10/22 04:01:41;;;;;;;8.65;4.63;;;;;;;5.95;90.57;95427.28;5098915;28;20222;-76
2022/10/22 04:04:08;;;;;;;8.95;5.47;;;;;;;5.81;90.86;95433.53;5103811;28;20259;-76
2022/10/22 04:06:34;;;;;;;7.80;5.05;;;;;;;5.96;90.15;95423.53;5103209;28;20711;-76
2022/10/22 04:09:01;;;;;;;10.32;5.28;;;;;;;5.91;89.41;95422.72;5097288;28;20201;-76
2022/10/22 04:11:28;;;;;;;9.35;5.45;;;;;;;5.61;88.97;95413.72;5097169;28;20199;-76
2022/10/22 04:13:56;;;;;;;11.75;4.93;;;;;;;5.62;90.04;95409.97;5090091;28;20638;-77
2022/10/22 04:16:23;;;;;;;8.45;4.50;;;;;;;5.74;90.90;95414.22;5090191;28;20264;-76
2022/10/22 04:18:50;;;;;;;10.02;5.15;;;;;;;5.96;90.92;95411.97;5090413;28;20226;-76
2022/10/22 04:21:19;;;;;;;8.02;5.53;;;;;;;6.03;90.88;95401.69;5090850;28;20251;-75
2022/10/22 04:23:46;;;;;;;8.05;5.20;;;;;;;6.05;91.35;95400.31;5122572;27;20230;-76
2022/10/22 04:26:13;;;;;;;10.45;5.45;;;;;;;6.14;91.54;95403.25;5096191;28;20784;-76
2022/10/22 04:28:40;;;;;;;7.93;4.97;;;;;;;6.18;91.50;95398.88;5102448;28;20279;-76
2022/10/22 04:31:10;;;;;;;8.05;5.28;;;;;;;6.32;91.16;95394.47;5104914;28;20835;-75
2022/10/22 04:33:37;;;;;;;14.63;6.03;;;;;;;6.32;91.34;95397.16;5101455;28;20700;-76
2022/10/22 04:36:07;;;;;;;10.05;4.97;;;;;;;6.47;91.01;95392.72;5105952;28;20638;-76
2022/10/22 04:38:34;;;;;;;9.30;5.88;;;;;;;6.65;90.70;95408.19;5100815;28;20198;-76
2022/10/22 04:41:09;;;;;;;7.80;5.50;;;;;;;6.61;89.86;95413.31;5103075;28;20697;-76
2022/10/22 04:43:36;;;;;;;11.00;5.93;;;;;;;6.78;89.17;95410.22;5090036;28;20296;-77
2022/10/22 04:46:03;;;;;;;10.48;5.90;;;;;;;6.67;88.45;95406.03;5103501;28;20233;-75
2022/10/22 04:48:31;;;;;;;11.77;6.32;;;;;;;6.91;87.89;95401.47;5101460;28;20198;-76
2022/10/22 04:50:59;;;;;;;8.18;4.78;;;;;;;6.91;86.67;95400.66;5096039;28;20205;-76
2022/10/22 04:53:26;;;;;;;10.80;5.40;;;;;;;6.87;87.17;95397.72;5098629;28;20249;-76
2022/10/22 04:55:53;;;;;;;10.27;6.10;;;;;;;6.87;87.30;95400.44;5103412;28;20275;-76
2022/10/22 04:58:20;;;;;;;10.75;4.93;;;;;;;6.77;88.02;95414.00;5101538;28;20267;-77
2022/10/22 05:00:46;;;;;;;18.02;7.28;;;;;;;6.57;88.21;95422.25;5104382;28;20229;-76
2022/10/22 05:03:13;;;;;;;12.85;6.63;;;;;;;6.51;88.77;95423.38;5101949;28;20198;-76
2022/10/22 05:05:41;;;;;;;12.93;6.15;;;;;;;6.45;89.08;95427.19;5096691;28;20290;-76
2022/10/22 05:08:10;;;;;;;11.25;6.18;;;;;;;6.83;89.02;95423.66;5097888;28;20206;-76
2022/10/22 05:10:37;;;;;;;14.40;6.10;;;;;;;7.10;87.95;95415.03;5103227;28;20714;-76
2022/10/22 05:13:03;;;;;;;12.75;7.88;;;;;;;7.26;87.09;95429.91;5103119;28;20197;-76
2022/10/22 05:15:30;;;;;;;29.77;6.50;;;;;;;6.99;86.86;95446.63;5089764;28;20198;-76
2022/10/22 05:17:57;;;;;;;11.60;6.40;;;;;;;6.76;87.59;95442.00;5103236;28;20745;-76
2022/10/22 05:20:24;;;;;;;14.50;6.40;;;;;;;6.98;87.55;95438.81;5096575;28;20250;-76
2022/10/22 05:22:52;;;;;;;12.25;5.45;;;;;;;7.11;87.10;95433.56;5125079;27;20249;-77
2022/10/22 05:25:18;;;;;;;15.52;5.40;;;;;;;7.23;86.33;95435.09;5093590;28;20218;-77
2022/10/22 05:27:49;;;;;;;12.20;6.47;;;;;;;7.33;86.15;95441.16;5091404;28;20232;-76
2022/10/22 05:30:16;;;;;;;10.02;5.00;;;;;;;7.32;86.13;95433.34;5093573;28;20240;-76
2022/10/22 05:32:43;;;;;;;10.52;5.72;;;;;;;7.36;86.10;95435.19;5093007;28;20202;-76
2022/10/22 05:35:10;;;;;;;8.45;4.60;;;;;;;7.46;85.48;95431.59;5093555;28;20226;-76
2022/10/22 05:37:36;;;;;;;10.40;5.60;;;;;;;7.46;85.86;95440.47;5093313;28;20264;-77
2022/10/22 05:40:06;;;;;;;9.85;5.97;;;;;;;7.63;85.20;95445.41;5093336;28;20712;-76
2022/10/22 05:42:33;;;;;;;12.57;6.57;;;;;;;7.59;85.38;95438.97;5093331;28;20287;-76
2022/10/22 05:45:00;;;;;;;12.60;6.10;;;;;;;7.67;85.09;95443.72;5093017;28;20226;-76
2022/10/22 05:47:29;;;;;;;9.65;5.75;;;;;;;7.70;84.79;95436.94;5093508;28;20248;-77
2022/10/22 05:49:56;;;;;;;8.40;5.50;;;;;;;7.85;84.63;95437.53;5092465;28;20247;-76
2022/10/22 05:52:23;;;;;;;11.98;6.13;;;;;;;7.71;84.63;95425.88;5091624;28;20195;-78
2022/10/22 05:54:49;;;;;;;9.57;5.65;;;;;;;7.84;85.83;95430.53;5091315;28;20284;-76
2022/10/22 05:57:18;;;;;;;17.40;7.65;;;;;;;8.97;83.53;95435.84;5093942;28;20430;-76
2022/10/22 05:59:44;;;;;;;15.32;8.55;;;;;;;9.94;79.92;95427.47;5101623;28;20214;-76
2022/10/22 06:02:13;;;;;;;16.25;8.23;;;;;;;10.63;76.30;95428.09;5101205;28;20197;-77
2022/10/22 06:04:39;;;;;;;10.80;6.50;;;;;;;10.56;75.06;95424.19;5102470;28;20217;-77
2022/10/22 06:07:14;;;;;;;13.00;6.47;;;;;;;10.43;75.44;95428.53;5102928;28;20203;-77
2022/10/22 06:09:41;;;;;;;13.07;7.38;;;;;;;10.42;76.55;95437.78;5100370;28;20232;-76
2022/10/22 06:12:09;;;;;;;15.75;6.80;;;;;;;10.78;74.93;95434.25;5098595;28;20239;-76
2022/10/22 06:14:37;;;;;;;11.23;6.47;;;;;;;11.02;73.01;95418.44;5093410;28;20222;-76
2022/10/22 06:17:04;;;;;;;20.02;8.82;;;;;;;11.64;73.03;95429.22;5098292;28;20190;-75
2022/10/22 06:19:31;;;;;;;13.00;7.32;;;;;;;12.05;71.80;95423.47;5103099;28;20255;-78
2022/10/22 06:21:58;;;;;;;14.63;8.02;;;;;;;12.82;69.24;95431.66;5099240;27;20195;-76
2022/10/22 06:24:25;;;;;;;14.48;8.60;;;;;;;13.59;64.81;95426.34;5094790;28;20611;-77
2022/10/22 06:26:52;;;;;;;13.23;7.43;;;;;;;13.75;65.47;95421.97;5102089;28;20221;-79
2022/10/22 06:29:19;;;;;;;11.25;7.10;;;;;;;13.66;64.04;95426.66;5101054;28;20636;-78
2022/10/22 06:31:47;;;;;;;13.85;7.28;;;;;;;13.71;64.00;95423.72;5104557;28;20194;-79
2022/10/22 06:34:17;;;;;;;13.95;7.13;;;;;;;13.90;65.01;95421.41;5096562;28;20626;-80
2022/10/22 06:36:44;;;;;;;12.65;7.18;;;;;;;13.55;63.45;95428.91;5100831;28;20648;-79
2022/10/22 06:39:13;;;;;;;15.68;8.68;;;;;;;13.27;65.86;95436.69;5099337;28;20712;-79
2022/10/22 06:41:40;;;;;;;21.92;9.80;;;;;;;13.21;65.85;95438.00;5100475;28;20199;-78
2022/10/22 06:44:07;;;;;;;17.75;9.32;;;;;;;12.48;68.21;95431.66;5102726;28;20275;-78
2022/10/22 06:46:34;;;;;;;17.98;8.90;;;;;;;12.96;66.42;95430.66;5100973;28;20220;-78
2022/10/22 06:49:04;;;;;;;21.90;9.63;;;;;;;13.14;66.24;95421.34;5103759;28;20248;-79
2022/10/22 06:51:31;;;;;;;15.05;8.55;;;;;;;12.94;65.79;95430.19;5100170;28;20209;-77
2022/10/22 06:53:59;;;;;;;18.23;9.85;;;;;;;12.73;65.83;95430.84;5101556;28;20684;-80
2022/10/22 06:56:27;;;;;;;23.77;9.93;;;;;;;12.72;66.42;95426.53;5100030;28;20599;-80
2022/10/22 06:58:56;;;;;;;25.27;9.13;;;;;;;12.65;67.28;95434.38;5099626;28;20214;-78
2022/10/22 07:01:25;;;;;;;22.63;9.35;;;;;;;12.42;67.44;95438.38;5098802;28;20190;-80
2022/10/22 07:03:52;;;;;;;27.30;15.88;;;;;;;12.45;68.45;95435.00;5098215;28;20242;-79
2022/10/22 07:06:22;;;;;;;26.92;15.60;;;;;;;12.57;67.89;95440.63;5101134;28;20194;-79
2022/10/22 07:08:49;;;;;;;27.85;15.98;;;;;;;12.65;67.77;95436.28;5099316;28;20240;-78
2022/10/22 07:11:17;;;;;;;19.33;10.15;;;;;;;12.62;68.22;95437.72;5099855;28;20681;-77
2022/10/22 07:13:45;;;;;;;14.32;8.85;;;;;;;12.16;68.32;95429.41;5101780;28;20642;-78
2022/10/22 07:16:12;;;;;;;16.15;8.98;;;;;;;12.39;68.57;95428.94;5099217;28;20198;-79
2022/10/22 07:18:40;;;;;;;28.08;10.75;;;;;;;12.35;68.16;95421.75;5099194;28;20668;-78
2022/10/22 07:21:08;;;;;;;29.30;16.23;;;;;;;12.57;67.50;95429.75;5096162;28;20642;-77
2022/10/22 07:23:37;;;;;;;31.35;17.25;;;;;;;12.99;66.60;95416.41;5109409;27;20251;-76
2022/10/22 07:26:06;;;;;;;25.25;15.63;;;;;;;12.63;66.29;95422.22;5103844;28;20218;-78
2022/10/22 07:28:33;;;;;;;29.20;17.27;;;;;;;12.19;68.42;95423.31;5097105;28;20194;-78
2022/10/22 07:31:00;;;;;;;28.60;16.48;;;;;;;12.45;67.72;95422.22;5094269;28;20214;-76
2022/10/22 07:33:27;;;;;;;19.10;11.00;;;;;;;12.89;66.19;95420.28;5095954;28;20656;-78
2022/10/22 07:35:58;;;;;;;13.32;8.38;;;;;;;12.61;67.82;95425.25;5092591;28;20244;-79
2022/10/22 07:38:25;;;;;;;29.75;10.68;;;;;;;12.88;65.85;95415.16;5095734;28;20281;-79
2022/10/22 07:40:53;;;;;;;27.65;16.10;;;;;;;12.75;66.68;95420.44;5099908;28;20195;-79
2022/10/22 07:43:20;;;;;;;25.65;14.65;;;;;;;13.34;64.96;95415.25;5098649;28;20194;-78
2022/10/22 07:45:47;;;;;;;18.15;10.02;;;;;;;13.52;63.91;95405.88;5099043;28;20217;-76
2022/10/22 07:48:14;;;;;;;21.58;11.15;;;;;;;12.92;65.51;95402.50;5099895;28;20195;-80
2022/10/22 07:50:41;;;;;;;19.38;9.82;;;;;;;13.41;65.00;95396.47;5099019;28;20307;-77
2022/10/22 07:53:07;;;;;;;21.48;10.80;;;;;;;13.71;64.55;95391.06;5096960;28;20194;-79
2022/10/22 07:55:34;;;;;;;19.25;9.25;;;;;;;13.59;64.21;95385.50;5100718;28;20628;-77
2022/10/22 07:58:04;;;;;;;17.60;9.05;;;;;;;13.80;64.11;95386.38;5100165;28;20271;-77
2022/10/22 08:00:31;;;;;;;22.55;10.82;;;;;;;13.34;64.50;95382.59;5088516;28;20710;-79
2022/10/22 08:02:58;;;;;;;19.15;9.85;;;;;;;13.35;65.42;95397.00;5088164;28;20195;-78
2022/10/22 08:05:25;;;;;;;28.10;11.13;;;;;;;13.29;65.66;95393.63;5088715;28;20714;-77
2022/10/22 08:07:52;;;;;;;14.05;7.90;;;;;;;13.31;64.82;95404.19;5089424;28;20194;-78
2022/10/22 08:10:19;;;;;;;21.98;14.70;;;;;;;13.61;64.45;95397.69;5088524;28;20244;-77
2022/10/22 08:12:45;;;;;;;27.17;15.80;;;;;;;13.81;63.99;95390.66;5087794;28;20263;-75
2022/10/22 08:15:13;;;;;;;24.73;15.40;;;;;;;13.98;62.98;95385.13;5094448;28;20221;-77
2022/10/22 08:17:40;;;;;;;23.25;10.75;;;;;;;13.77;63.94;95389.75;5092877;28;20190;-77
2022/10/22 08:20:08;;;;;;;20.83;9.52;;;;;;;13.91;64.06;95384.88;5099204;28;20195;-75
2022/10/22 08:22:35;;;;;;;21.40;9.82;;;;;;;13.85;63.31;95391.63;5095601;28;20262;-77
2022/10/22 08:25:01;;;;;;;23.65;15.30;;;;;;;13.84;63.31;95384.56;5098673;28;20279;-75
2022/10/22 08:27:28;;;;;;;25.77;16.33;;;;;;;13.80;63.65;95367.31;5096922;28;20261;-75
2022/10/22 08:29:55;;;;;;;19.52;10.52;;;;;;;13.90;64.11;95366.94;5095366;28;20199;-80
2022/10/22 08:32:24;;;;;;;27.48;13.68;;;;;;;13.91;63.05;95365.78;5089730;28;20267;-79
2022/10/22 08:34:51;;;;;;;17.17;9.70;;;;;;;13.99;63.12;95369.59;5097138;28;20840;-82
2022/10/22 08:37:18;;;;;;;17.15;9.10;;;;;;;13.87;63.56;95375.75;5091752;28;20283;-80
2022/10/22 08:42:50;;;;;;;16.42;9.30;;;;;;;13.76;62.56;95355.47;730168;22;21359;-90
2022/10/22 08:45:23;;;;;;;10.85;6.40;;;;;;;13.75;62.43;95337.53;5082455;28;20208;-88
2022/10/22 08:48:08;;;;;;;11.32;6.95;;;;;;;13.66;61.59;95331.34;5077711;28;20202;-87
2022/10/22 08:50:40;;;;;;;13.93;6.90;;;;;;;13.94;62.13;95378.72;5085618;28;20198;-87
2022/10/22 08:53:14;;;;;;;15.63;7.65;;;;;;;14.46;60.32;95353.88;5082809;28;20201;-86
2022/10/22 08:55:42;;;;;;;21.08;12.65;;;;;;;14.84;59.76;95348.22;5083956;28;20217;-90
2022/10/22 08:58:19;;;;;;;22.58;13.90;;;;;;;14.39;59.09;95318.13;5078358;28;20199;-89
2022/10/22 09:00:51;;;;;;;22.52;13.80;;;;;;;14.16;60.44;95325.88;5086245;28;20276;-89
2022/10/22 09:03:31;;;;;;;27.92;13.75;;;;;;;14.82;59.45;95359.47;5078604;28;20194;-88
2022/10/22 09:06:05;;;;;;;23.92;13.40;;;;;;;14.84;59.46;95357.19;5086830;28;20210;-89
2022/10/22 09:08:32;;;;;;;25.23;14.50;;;;;;;14.40;60.03;95315.09;5080244;28;20213;-88
2022/10/22 09:11:03;;;;;;;20.63;10.57;;;;;;;14.72;59.34;95338.06;5087168;28;20198;-88
2022/10/22 09:13:30;;;;;;;18.70;10.15;;;;;;;14.80;59.20;95358.19;5080436;28;20191;-89
2022/10/22 09:16:01;;;;;;;24.80;9.65;;;;;;;14.48;59.82;95310.72;5078016;28;20230;-90
2022/10/22 09:18:40;;;;;;;16.95;9.63;;;;;;;14.46;59.67;95307.53;5083012;28;20544;-89
2022/10/22 09:21:27;;;;;;;19.20;9.90;;;;;;;14.38;60.05;95321.97;5079072;28;20202;-89
2022/10/22 09:24:04;;;;;;;15.32;8.68;;;;;;;14.38;60.25;95300.19;5083082;28;20202;-87
2022/10/22 09:26:34;;;;;;;25.23;15.35;;;;;;;14.27;60.46;95304.47;5081969;28;20728;-89
2022/10/22 09:29:05;;;;;;;24.70;15.35;;;;;;;14.78;59.13;95317.59;5074886;28;20202;-89
2022/10/22 09:31:33;;;;;;;16.65;9.57;;;;;;;14.92;58.58;95315.38;5085028;28;20182;-88
2022/10/22 09:34:06;;;;;;;23.88;15.15;;;;;;;14.88;58.88;95287.19;5077500;28;20187;-87
2022/10/22 09:36:33;;;;;;;21.70;13.40;;;;;;;15.32;58.20;95322.94;5081631;28;20246;-87
2022/10/22 09:39:03;;;;;;;23.85;13.93;;;;;;;14.71;59.05;95287.38;5086994;28;20215;-88
2022/10/22 09:41:31;;;;;;;23.52;13.13;;;;;;;14.83;59.11;95322.06;5083681;28;20253;-88
2022/10/22 09:44:13;;;;;;;23.85;13.68;;;;;;;14.74;58.78;95270.34;5087913;28;20222;-86
2022/10/22 09:46:42;;;;;;;23.80;10.32;;;;;;;14.85;59.30;95298.78;5080153;28;20243;-89
2022/10/22 09:49:14;;;;;;;20.40;10.07;;;;;;;15.04;58.73;95279.13;5091213;28;20642;-88
2022/10/22 09:51:53;;;;;;;16.30;9.45;;;;;;;15.27;58.50;95282.22;5087321;28;20245;-87
2022/10/22 09:54:23;;;;;;;17.27;9.77;;;;;;;15.17;58.13;95260.84;5072655;28;20213;-90
2022/10/22 09:56:56;;;;;;;15.85;8.73;;;;;;;15.28;57.28;95273.69;5084400;28;20331;-87
2022/10/22 09:59:31;;;;;;;13.85;9.02;;;;;;;15.35;57.28;95269.59;5085510;28;20191;-89
2022/10/22 10:02:03;;;;;;;18.95;9.73;;;;;;;15.45;57.86;95293.69;5085897;28;20224;-88
2022/10/22 10:04:39;;;;;;;19.10;8.75;;;;;;;15.60;57.56;95306.69;5081721;28;20198;-87
2022/10/22 10:07:19;;;;;;;17.85;9.27;;;;;;;15.38;56.75;95272.44;5078657;28;20205;-88
2022/10/22 10:09:47;;;;;;;24.10;13.85;;;;;;;15.48;57.64;95282.88;5080683;28;20198;-88
2022/10/22 10:12:26;;;;;;;19.58;13.52;;;;;;;15.67;57.24;95296.00;5094767;28;20237;-89
2022/10/22 10:15:00;;;;;;;24.10;13.90;;;;;;;15.36;57.81;95241.94;5082532;28;20210;-88
2022/10/22 10:17:38;;;;;;;21.17;12.60;;;;;;;15.50;57.43;95291.53;5086662;28;20213;-87
2022/10/22 10:20:22;;;;;;;23.23;13.45;;;;;;;15.43;57.26;95276.88;5083220;28;20203;-88
2022/10/22 10:22:57;;;;;;;20.15;12.57;;;;;;;15.65;57.57;95246.38;5088119;28;20852;-88
2022/10/22 10:25:34;;;;;;;23.75;13.30;;;;;;;15.60;57.00;95247.41;5083383;28;20563;-86
2022/10/22 10:28:16;;;;;;;22.98;12.98;;;;;;;16.00;56.30;95282.16;5084614;28;20547;-88
2022/10/22 10:30:53;;;;;;;18.63;12.73;;;;;;;16.11;55.88;95266.88;5084788;28;20656;-89
2022/10/22 10:33:28;;;;;;;21.73;12.82;;;;;;;16.11;56.41;95275.06;5086854;28;20199;-88
2022/10/22 10:36:08;;;;;;;20.58;12.10;;;;;;;16.38;55.01;95265.28;5089686;28;20749;-88
2022/10/22 10:38:44;;;;;;;18.33;11.38;;;;;;;16.18;55.90;95223.31;5080108;28;20191;-88
2022/10/22 10:41:22;;;;;;;20.65;12.50;;;;;;;16.25;54.87;95218.06;5083053;28;20699;-89
2022/10/22 10:44:25;;;;;;;21.67;13.18;;;;;;;16.35;55.04;95250.38;5093743;28;20226;-89
2022/10/22 10:47:07;;;;;;;19.85;12.00;;;;;;;16.66;54.79;95248.88;5088552;28;20195;-88
2022/10/22 10:49:35;;;;;;;20.45;12.10;;;;;;;16.36;54.60;95188.28;5078735;28;20687;-88
2022/10/22 10:52:12;;;;;;;17.65;11.65;;;;;;;16.58;54.64;95208.75;5085536;28;20191;-87
2022/10/22 10:54:46;;;;;;;18.90;12.20;;;;;;;16.95;54.37;95212.88;5083007;28;20198;-88
2022/10/22 10:57:22;;;;;;;21.77;12.77;;;;;;;17.13;54.00;95201.56;5085713;28;20248;-87
2022/10/22 11:00:00;;;;;;;20.73;12.65;;;;;;;16.78;53.99;95179.59;5079346;28;20227;-87
2022/10/22 11:03:15;;;;;;;21.55;11.60;;;;;;;17.06;53.85;95194.00;5080666;28;20526;-87
2022/10/22 11:05:45;;;;;;;18.98;12.68;;;;;;;16.90;53.00;95155.69;5087401;28;20238;-87
2022/10/22 11:08:19;;;;;;;21.13;11.15;;;;;;;17.05;53.55;95174.03;5088752;28;20174;-92
2022/10/22 11:10:52;;;;;;;19.48;12.18;;;;;;;17.15;53.68;95167.22;5093888;28;20251;-89
2022/10/22 11:13:28;;;;;;;22.30;11.43;;;;;;;17.32;53.18;95177.00;5079863;28;20191;-89
2022/10/22 11:16:03;;;;;;;20.83;12.27;;;;;;;16.92;53.04;95138.91;5087663;28;20220;-89
2022/10/22 11:18:35;;;;;;;17.77;10.65;;;;;;;17.53;53.00;95184.88;5091470;28;20248;-87
2022/10/22 11:21:18;;;;;;;16.52;10.93;;;;;;;17.57;52.19;95181.06;5085422;28;20206;-88
2022/10/22 11:23:50;;;;;;;16.52;10.35;;;;;;;17.43;52.21;95169.78;5087279;28;20207;-87
2022/10/22 11:26:29;;;;;;;18.60;9.77;;;;;;;17.48;52.56;95153.09;5074399;28;20278;-89
2022/10/22 11:29:00;;;;;;;18.23;10.63;;;;;;;17.73;51.62;95150.91;5093809;28;20186;-88
2022/10/22 11:31:27;;;;;;;18.85;10.60;;;;;;;17.48;52.15;95113.94;5093126;28;20198;-89
2022/10/22 11:34:01;;;;;;;16.02;10.18;;;;;;;17.67;52.10;95127.66;5082870;28;20239;-88
2022/10/22 11:36:30;;;;;;;19.95;10.95;;;;;;;17.87;51.46;95131.22;5086836;28;20227;-89
2022/10/22 11:38:59;;;;;;;16.98;9.68;;;;;;;17.98;50.96;95110.28;5085224;28;20201;-87
2022/10/22 11:41:30;;;;;;;18.17;9.57;;;;;;;17.87;50.80;95125.72;5093083;28;20595;-88
2022/10/22 11:44:05;;;;;;;17.02;10.15;;;;;;;17.43;50.66;95101.31;5093322;28;20230;-88
2022/10/22 11:46:43;;;;;;;12.68;9.13;;;;;;;17.48;51.52;95087.34;5081353;28;20748;-88